Time;durP1;ratioP1;P1;durP2;ratioP2;P2;SDS_P1;SDS_P2;PMS_P1;PMS_P2;Temp;Humidity;BMP_temperature;BMP_pressure;BME280_temperature;BME280_humidity;BME280_pressure;Samples;Min_cycle;Max_cycle;Signal;HPM_P1;HPM_P2
2022/08/08 00:01:35;;;;;;;6.68;3.10;;;;;;;14.50;67.81;100349.47;5031583;28;20131;-68
2022/08/08 00:04:10;;;;;;;6.63;3.17;;;;;;;14.49;67.80;100350.38;5030872;28;20053;-69
2022/08/08 00:06:48;;;;;;;6.35;3.70;;;;;;;14.46;67.73;100352.38;5031410;28;20072;-69
2022/08/08 00:09:28;;;;;;;8.02;3.53;;;;;;;14.41;68.35;100346.47;5031524;28;20050;-69
2022/08/08 00:12:00;;;;;;;5.90;3.38;;;;;;;14.36;68.39;100347.56;5031169;28;20502;-69
2022/08/08 00:14:45;;;;;;;6.55;3.53;;;;;;;14.36;68.31;100342.28;5030892;28;20231;-68
2022/08/08 00:17:17;;;;;;;7.88;4.10;;;;;;;14.35;68.42;100335.25;5024888;28;20529;-68
2022/08/08 00:19:49;;;;;;;7.20;4.07;;;;;;;14.41;67.96;100342.00;5031447;28;20059;-68
2022/08/08 00:22:20;;;;;;;6.28;4.20;;;;;;;14.35;68.59;100340.56;5031405;28;20100;-68
2022/08/08 00:24:50;;;;;;;6.47;3.70;;;;;;;14.31;68.59;100344.31;5030773;28;20046;-68
2022/08/08 00:27:20;;;;;;;6.70;3.88;;;;;;;14.31;68.78;100343.47;5031442;28;20632;-68
2022/08/08 00:29:55;;;;;;;5.07;3.78;;;;;;;14.26;68.66;100340.22;5031309;28;20072;-69
2022/08/08 00:32:27;;;;;;;4.65;3.55;;;;;;;14.26;68.86;100341.06;5029023;28;20045;-69
2022/08/08 00:35:25;;;;;;;4.60;3.47;;;;;;;14.18;69.52;100341.50;5010393;28;20054;-68
2022/08/08 00:38:11;;;;;;;4.18;3.70;;;;;;;14.13;69.46;100346.22;5011116;28;20054;-68
2022/08/08 00:40:55;;;;;;;;;;;;;;;14.08;69.98;100336.81;5011635;28;20052;-68
2022/08/08 00:44:04;;;;;;;5.80;3.33;;;;;;;13.97;69.91;100345.31;4989919;28;19921;-68
2022/08/08 00:47:05;;;;;;;5.00;3.22;;;;;;;13.90;70.57;100342.13;4986231;28;20540;-68
2022/08/08 00:50:22;;;;;;;4.90;4.10;;;;;;;13.92;69.77;100342.06;5011063;28;20494;-69
2022/08/08 00:52:59;;;;;;;9.38;3.78;;;;;;;13.85;70.27;100335.38;5008289;28;20422;-67
2022/08/08 00:55:54;;;;;;;10.02;4.10;;;;;;;13.81;70.40;100340.00;5010351;28;20330;-67
2022/08/08 00:58:43;;;;;;;5.63;3.70;;;;;;;13.75;70.78;100341.16;5010332;28;20440;-67
2022/08/08 01:01:16;;;;;;;4.72;3.38;;;;;;;13.73;71.00;100345.72;5010936;28;20050;-68
2022/08/08 01:04:22;;;;;;;4.72;3.67;;;;;;;13.81;70.71;100340.00;5010713;28;20057;-67
2022/08/08 01:07:38;;;;;;;5.03;3.22;;;;;;;13.84;70.40;100339.00;5010464;28;20524;-69
2022/08/08 01:10:54;;;;;;;5.70;4.32;;;;;;;13.84;70.21;100341.63;5012471;28;20141;-67
2022/08/08 01:13:51;;;;;;;5.03;3.75;;;;;;;13.72;70.71;100337.84;5024729;28;20071;-68
2022/08/08 01:16:44;;;;;;;7.25;4.28;;;;;;;13.56;71.57;100337.81;5029952;28;20136;-68
2022/08/08 01:19:44;;;;;;;5.45;3.78;;;;;;;13.58;71.39;100337.72;5030578;28;20251;-68
2022/08/08 01:22:55;;;;;;;5.20;3.95;;;;;;;13.48;72.22;100338.19;5030143;28;20056;-68
2022/08/08 01:25:49;;;;;;;5.35;4.18;;;;;;;13.40;72.01;100334.25;5029658;28;20136;-68
2022/08/08 01:28:47;;;;;;;5.85;3.72;;;;;;;13.34;72.66;100335.44;5029845;28;20052;-68
2022/08/08 01:31:57;;;;;;;10.10;7.38;;;;;;;13.34;72.62;100332.78;5029892;28;20054;-68
2022/08/08 01:34:57;;;;;;;14.38;8.98;;;;;;;13.30;72.96;100325.94;4987274;28;20056;-68
2022/08/08 01:37:56;;;;;;;66.30;40.75;;;;;;;13.26;72.43;100326.97;5027877;28;20053;-68
2022/08/08 01:40:27;;;;;;;8.93;4.95;;;;;;;13.23;72.64;100324.50;5013725;28;20060;-67
2022/08/08 01:43:01;;;;;;;8.77;4.00;;;;;;;13.18;72.76;100321.22;5029947;28;20063;-68
2022/08/08 01:45:45;;;;;;;6.57;4.40;;;;;;;13.17;72.93;100320.38;5029535;28;20072;-69
2022/08/08 01:48:23;;;;;;;4.68;3.80;;;;;;;13.19;72.19;100320.28;5029621;28;20045;-69
2022/08/08 01:51:10;;;;;;;6.63;4.18;;;;;;;13.17;72.69;100324.78;5030276;28;20163;-68
2022/08/08 01:53:46;;;;;;;4.15;3.20;;;;;;;13.25;72.54;100322.63;5030275;28;20055;-68
2022/08/08 01:56:26;;;;;;;10.55;3.92;;;;;;;13.25;72.11;100328.78;5028920;28;20049;-69
2022/08/08 01:59:07;;;;;;;7.55;4.28;;;;;;;13.16;72.45;100323.94;5029650;28;20048;-68
2022/08/08 02:01:54;;;;;;;3.80;3.20;;;;;;;13.16;72.14;100337.19;5029693;28;20144;-68
2022/08/08 02:04:30;;;;;;;4.85;3.78;;;;;;;13.20;72.24;100338.75;5029115;28;20461;-68
2022/08/08 02:07:03;;;;;;;4.75;2.83;;;;;;;13.23;71.69;100335.09;5029371;28;20128;-69
2022/08/08 02:09:42;;;;;;;6.03;4.18;;;;;;;13.25;71.77;100335.88;5029315;28;20046;-69
2022/08/08 02:12:16;;;;;;;10.75;3.60;;;;;;;13.18;72.29;100331.81;5028932;28;20054;-67
2022/08/08 02:14:52;;;;;;;5.28;4.03;;;;;;;13.09;71.94;100333.13;5035041;28;20057;-69
2022/08/08 02:17:25;;;;;;;4.53;3.47;;;;;;;13.01;72.38;100332.69;5049529;28;20064;-69
2022/08/08 02:19:56;;;;;;;9.27;4.03;;;;;;;12.91;73.38;100339.38;5049142;28;20045;-67
2022/08/08 02:22:33;;;;;;;7.60;4.05;;;;;;;12.95;73.05;100331.19;5049659;28;20051;-69
2022/08/08 02:25:07;;;;;;;11.15;4.38;;;;;;;12.94;72.48;100334.75;5048833;28;20131;-66
2022/08/08 02:27:40;;;;;;;5.38;4.32;;;;;;;12.91;73.41;100329.63;5048886;28;20052;-68
2022/08/08 02:30:10;;;;;;;5.68;3.75;;;;;;;12.81;73.44;100336.31;5049016;28;20099;-69
2022/08/08 02:33:03;;;;;;;7.18;4.47;;;;;;;12.78;74.16;100332.03;5031556;28;20064;-68
2022/08/08 02:36:02;;;;;;;6.93;4.57;;;;;;;12.74;73.77;100329.63;5008687;28;20057;-69
2022/08/08 02:38:50;;;;;;;5.10;3.80;;;;;;;12.71;73.79;100324.50;5009478;28;20133;-69
2022/08/08 02:41:55;;;;;;;8.02;4.57;;;;;;;12.66;74.54;100322.91;5009651;28;20049;-68
2022/08/08 02:45:02;;;;;;;4.78;3.67;;;;;;;12.63;74.15;100324.88;4998764;28;20049;-68
2022/08/08 02:48:08;;;;;;;6.85;4.82;;;;;;;12.57;75.09;100328.66;5008648;28;20057;-68
2022/08/08 02:51:05;;;;;;;5.50;4.45;;;;;;;12.63;74.50;100328.34;5008994;28;20076;-67
2022/08/08 02:54:00;;;;;;;7.05;4.43;;;;;;;12.58;73.72;100332.19;5008897;28;20107;-67
2022/08/08 02:57:14;;;;;;;6.88;4.88;;;;;;;12.43;75.23;100333.78;5008631;28;20046;-68
2022/08/08 03:00:18;;;;;;;5.78;4.57;;;;;;;12.44;74.62;100333.69;5008862;28;20560;-69
2022/08/08 03:03:18;;;;;;;6.05;4.78;;;;;;;12.36;74.63;100335.84;5011993;28;20060;-68
2022/08/08 03:06:31;;;;;;;10.13;4.65;;;;;;;12.29;75.66;100342.34;5027702;28;20496;-68
2022/08/08 03:09:34;;;;;;;6.07;4.05;;;;;;;12.24;76.08;100332.00;5028367;28;20045;-68
2022/08/08 03:12:39;;;;;;;4.88;3.97;;;;;;;12.32;76.04;100328.97;5028529;28;20045;-68
2022/08/08 03:15:34;;;;;;;5.50;4.10;;;;;;;12.37;74.85;100328.75;4999757;28;20049;-68
2022/08/08 03:18:07;;;;;;;6.03;3.83;;;;;;;12.32;75.73;100336.06;5028372;28;20045;-68
2022/08/08 03:20:43;;;;;;;5.22;4.20;;;;;;;12.30;75.26;100333.47;5028277;28;20585;-70
2022/08/08 03:23:11;;;;;;;6.38;4.97;;;;;;;12.32;74.72;100347.50;5030767;28;20056;-69
2022/08/08 03:25:38;;;;;;;7.13;4.28;;;;;;;12.27;75.54;100346.00;5036107;28;20132;-68
2022/08/08 03:28:10;;;;;;;6.75;3.95;;;;;;;12.24;75.58;100352.28;5037627;28;20132;-68
2022/08/08 03:30:36;;;;;;;7.50;3.92;;;;;;;12.25;75.74;100354.00;5038223;28;20049;-68
2022/08/08 03:33:17;;;;;;;4.97;3.85;;;;;;;12.27;75.43;100354.78;5037738;28;20136;-69
2022/08/08 03:35:46;;;;;;;4.78;3.90;;;;;;;12.27;75.00;100353.94;5036775;28;20152;-69
2022/08/08 03:38:14;;;;;;;6.15;4.03;;;;;;;12.25;75.33;100352.19;5035322;28;20553;-69
2022/08/08 03:40:41;;;;;;;5.88;4.30;;;;;;;12.23;75.22;100350.56;5019967;28;20056;-68
2022/08/08 03:43:11;;;;;;;8.50;4.88;;;;;;;12.21;74.99;100355.09;5021289;28;20053;-69
2022/08/08 03:45:40;;;;;;;6.40;4.20;;;;;;;12.18;75.36;100352.56;5018098;28;20054;-68
2022/08/08 03:48:08;;;;;;;7.90;4.47;;;;;;;12.15;75.92;100358.00;5012091;28;20528;-68
2022/08/08 03:50:35;;;;;;;5.75;4.25;;;;;;;12.15;75.46;100350.91;5012160;28;20053;-69
2022/08/08 03:53:06;;;;;;;5.38;4.20;;;;;;;12.16;75.43;100359.72;5012757;28;20054;-68
2022/08/08 03:55:38;;;;;;;11.60;5.78;;;;;;;12.16;75.82;100352.66;5012436;28;20053;-68
2022/08/08 03:58:05;;;;;;;6.07;4.85;;;;;;;12.15;75.58;100358.84;5012975;28;20054;-68
2022/08/08 04:00:31;;;;;;;7.28;5.30;;;;;;;12.03;75.73;100357.66;5028322;28;20049;-67
2022/08/08 04:03:00;;;;;;;6.80;4.95;;;;;;;11.96;76.14;100355.34;5032281;28;20570;-68
2022/08/08 04:05:28;;;;;;;6.75;5.00;;;;;;;11.96;76.34;100358.88;5031339;28;20133;-69
2022/08/08 04:07:55;;;;;;;7.13;4.47;;;;;;;11.97;76.68;100363.22;5032081;28;20432;-67
2022/08/08 04:10:22;;;;;;;6.07;4.32;;;;;;;11.97;76.04;100365.00;5032254;28;20072;-68
2022/08/08 04:12:50;;;;;;;6.13;4.65;;;;;;;11.99;76.18;100369.28;5032012;28;20049;-69
2022/08/08 04:15:17;;;;;;;5.40;4.30;;;;;;;11.99;76.24;100371.94;5031346;28;20049;-68
2022/08/08 04:17:43;;;;;;;6.38;5.03;;;;;;;11.98;76.00;100374.63;5032638;28;20045;-67
2022/08/08 04:20:10;;;;;;;8.25;5.32;;;;;;;11.88;76.30;100370.69;5032736;28;20049;-69
2022/08/08 04:22:37;;;;;;;8.93;5.05;;;;;;;11.81;76.84;100368.31;5031414;28;20049;-68
2022/08/08 04:25:05;;;;;;;7.45;4.65;;;;;;;11.78;76.67;100368.41;5027505;28;20056;-69
2022/08/08 04:27:32;;;;;;;8.48;5.38;;;;;;;11.79;77.22;100377.22;5031061;28;20050;-70
2022/08/08 04:30:01;;;;;;;6.05;5.03;;;;;;;11.83;77.00;100382.28;5031294;28;20056;-68
2022/08/08 04:32:28;;;;;;;8.00;4.93;;;;;;;11.86;76.77;100377.78;5031120;28;20053;-68
2022/08/08 04:34:54;;;;;;;8.10;5.65;;;;;;;11.87;76.55;100380.41;5030419;28;20057;-67
2022/08/08 04:37:21;;;;;;;6.53;4.53;;;;;;;11.88;77.03;100378.63;5031345;28;20505;-68
2022/08/08 04:39:47;;;;;;;5.82;4.75;;;;;;;11.89;77.16;100380.31;5031211;28;20712;-68
2022/08/08 04:42:14;;;;;;;6.90;5.22;;;;;;;11.91;76.86;100387.28;5031321;28;20069;-69
2022/08/08 04:44:41;;;;;;;6.20;4.68;;;;;;;11.91;76.63;100394.31;5030150;28;20053;-68
2022/08/08 04:47:09;;;;;;;8.23;4.70;;;;;;;11.88;76.35;100395.31;5030891;28;20135;-68
2022/08/08 04:49:35;;;;;;;6.45;4.07;;;;;;;11.94;76.59;100391.56;5031080;28;20053;-68
2022/08/08 04:52:02;;;;;;;7.88;4.93;;;;;;;11.99;76.44;100389.56;5031111;28;20161;-68
2022/08/08 04:54:29;;;;;;;8.98;5.53;;;;;;;12.03;75.84;100388.47;5030252;28;20057;-68
2022/08/08 04:56:55;;;;;;;9.80;5.20;;;;;;;12.08;76.13;100391.78;5030298;28;20056;-67
2022/08/08 04:59:22;;;;;;;6.90;5.25;;;;;;;12.15;76.57;100395.00;5030656;28;20045;-68
2022/08/08 05:01:49;;;;;;;5.90;4.57;;;;;;;12.22;76.01;100401.72;5030432;28;20081;-68
2022/08/08 05:04:17;;;;;;;7.43;4.78;;;;;;;12.27;75.24;100396.22;5029802;28;20558;-68
2022/08/08 05:06:44;;;;;;;9.13;6.10;;;;;;;12.32;75.64;100394.22;5030413;28;20045;-68
2022/08/08 05:09:10;;;;;;;5.22;4.38;;;;;;;12.37;75.81;100394.88;5019190;28;20049;-68
2022/08/08 05:11:37;;;;;;;8.05;4.60;;;;;;;12.43;75.43;100391.94;5010544;28;20056;-69
2022/08/08 05:14:04;;;;;;;7.63;4.90;;;;;;;12.51;74.84;100391.59;5009868;28;20048;-69
2022/08/08 05:16:31;;;;;;;7.07;5.10;;;;;;;12.59;75.05;100394.72;5010644;28;20096;-67
2022/08/08 05:18:58;;;;;;;5.85;4.53;;;;;;;12.65;74.67;100391.75;5012920;28;20042;-69
2022/08/08 05:21:26;;;;;;;5.47;4.32;;;;;;;12.73;74.61;100392.25;5030489;28;20044;-67
2022/08/08 05:23:53;;;;;;;9.73;5.95;;;;;;;12.81;74.64;100394.53;5030168;28;20140;-69
2022/08/08 05:26:20;;;;;;;9.50;5.07;;;;;;;12.87;74.08;100397.75;5030207;28;20057;-68
2022/08/08 05:28:47;;;;;;;7.28;5.35;;;;;;;12.90;74.20;100394.09;5029663;28;20049;-69
2022/08/08 05:31:13;;;;;;;7.00;5.40;;;;;;;12.94;74.64;100390.34;5029945;28;20045;-70
2022/08/08 05:33:40;;;;;;;7.55;5.40;;;;;;;13.04;73.68;100394.28;5030287;28;20050;-68
2022/08/08 05:36:10;;;;;;;9.57;5.68;;;;;;;13.16;74.41;100397.22;5029395;28;20057;-69
2022/08/08 05:38:46;;;;;;;11.93;5.00;;;;;;;13.29;74.12;100395.69;5029869;28;20050;-69
2022/08/08 05:41:16;;;;;;;8.82;4.88;;;;;;;13.40;73.41;100403.09;5029591;28;20041;-69
2022/08/08 05:43:45;;;;;;;7.20;5.45;;;;;;;13.50;73.18;100399.91;5029721;28;20470;-70
2022/08/08 05:46:12;;;;;;;7.57;4.90;;;;;;;13.59;73.30;100406.53;5028439;28;20136;-70
2022/08/08 05:48:39;;;;;;;10.18;5.45;;;;;;;13.71;73.05;100402.38;5029180;28;20051;-69
2022/08/08 05:51:06;;;;;;;7.47;4.78;;;;;;;13.80;72.37;100412.47;5029190;28;20055;-70
2022/08/08 05:53:33;;;;;;;7.97;5.47;;;;;;;13.93;72.40;100415.34;5029465;28;20053;-69
2022/08/08 05:56:01;;;;;;;8.38;6.03;;;;;;;14.01;71.71;100415.81;5028976;28;20048;-69
2022/08/08 05:58:30;;;;;;;5.65;4.85;;;;;;;14.11;71.87;100417.03;5029376;28;20400;-69
2022/08/08 06:00:57;;;;;;;10.07;5.85;;;;;;;14.24;71.01;100416.38;5029376;28;20497;-70
2022/08/08 06:03:26;;;;;;;6.43;5.07;;;;;;;14.36;70.64;100421.84;5029492;28;20472;-68
2022/08/08 06:05:54;;;;;;;10.45;6.53;;;;;;;14.46;70.66;100418.69;5028806;28;20050;-68
2022/08/08 06:08:27;;;;;;;8.15;6.68;;;;;;;14.59;70.21;100417.09;5029302;28;20485;-67
2022/08/08 06:10:55;;;;;;;9.50;7.25;;;;;;;14.69;69.67;100418.28;5029204;28;20049;-69
2022/08/08 06:13:25;;;;;;;10.32;6.75;;;;;;;14.81;69.30;100422.91;5029504;28;20498;-68
2022/08/08 06:15:53;;;;;;;12.80;7.72;;;;;;;14.94;68.94;100416.91;5028231;28;20060;-68
2022/08/08 06:18:22;;;;;;;10.85;7.50;;;;;;;15.04;68.74;100423.41;5029104;28;20049;-67
2022/08/08 06:20:51;;;;;;;7.07;6.32;;;;;;;15.14;68.31;100423.75;5028506;28;20053;-69
2022/08/08 06:23:18;;;;;;;12.95;7.70;;;;;;;15.22;67.97;100424.13;5029259;28;20046;-69
2022/08/08 06:25:51;;;;;;;11.68;7.47;;;;;;;15.31;67.71;100430.69;5028175;28;20049;-70
2022/08/08 06:28:25;;;;;;;17.88;12.25;;;;;;;15.40;67.77;100430.16;5029063;28;20079;-69
2022/08/08 06:30:54;;;;;;;11.75;7.43;;;;;;;15.54;67.18;100424.91;5025394;28;20041;-68
2022/08/08 06:33:26;;;;;;;8.68;6.50;;;;;;;15.69;66.94;100425.78;5028723;28;20048;-69
2022/08/08 06:35:56;;;;;;;7.03;6.32;;;;;;;15.81;66.33;100433.03;5028473;28;20045;-69
2022/08/08 06:38:27;;;;;;;13.75;7.57;;;;;;;15.95;66.14;100440.19;5028903;28;20056;-68
2022/08/08 06:41:03;;;;;;;10.32;6.05;;;;;;;16.08;65.68;100433.16;5029155;28;20292;-68
2022/08/08 06:43:35;;;;;;;11.23;7.40;;;;;;;16.19;65.43;100444.94;5028518;28;20049;-69
2022/08/08 06:46:03;;;;;;;9.52;6.80;;;;;;;16.33;64.47;100436.94;5027929;28;20059;-69
2022/08/08 06:48:30;;;;;;;10.02;7.50;;;;;;;16.47;64.22;100438.75;5027866;28;20505;-71
2022/08/08 06:50:57;;;;;;;9.85;7.20;;;;;;;16.60;63.92;100441.47;5028617;28;20104;-69
2022/08/08 06:53:26;;;;;;;9.63;7.75;;;;;;;16.72;62.88;100438.88;5028444;28;20057;-68
2022/08/08 06:55:53;;;;;;;8.82;7.20;;;;;;;16.88;62.13;100441.47;5027657;28;20045;-68
2022/08/08 06:58:20;;;;;;;14.75;7.38;;;;;;;17.06;62.44;100443.88;5028247;28;20136;-68
2022/08/08 07:00:50;;;;;;;8.75;6.18;;;;;;;17.17;62.44;100441.34;5027997;28;20409;-69
2022/08/08 07:03:34;;;;;;;10.43;6.85;;;;;;;17.36;61.00;100436.50;5028584;28;20049;-69
2022/08/08 07:06:04;;;;;;;11.27;8.95;;;;;;;17.47;60.86;100442.91;5027975;28;20049;-69
2022/08/08 07:08:37;;;;;;;10.38;6.60;;;;;;;17.63;60.56;100440.06;5029060;28;20069;-68
2022/08/08 07:11:06;;;;;;;13.43;8.02;;;;;;;17.81;59.82;100445.00;5028819;28;20055;-70
2022/08/08 07:13:38;;;;;;;16.05;7.68;;;;;;;17.92;58.02;100443.44;5028693;28;20137;-69
2022/08/08 07:16:13;;;;;;;12.05;7.25;;;;;;;17.97;58.51;100443.97;5025002;28;20059;-70
2022/08/08 07:19:05;;;;;;;9.75;6.88;;;;;;;18.16;57.86;100449.72;5028963;28;20099;-69
2022/08/08 07:21:42;;;;;;;9.80;7.18;;;;;;;18.35;56.70;100457.28;5029728;28;20069;-70
2022/08/08 07:24:13;;;;;;;9.88;6.68;;;;;;;18.61;56.30;100455.41;5027839;28;20559;-70
2022/08/08 07:26:41;;;;;;;13.15;6.43;;;;;;;18.81;56.08;100459.34;5028393;28;20045;-69
2022/08/08 07:29:08;;;;;;;11.40;6.63;;;;;;;18.90;55.11;100465.81;5029075;28;20054;-68
2022/08/08 07:31:36;;;;;;;14.85;6.45;;;;;;;19.05;55.45;100463.84;5027844;28;20045;-70
2022/08/08 07:34:04;;;;;;;11.45;6.05;;;;;;;19.22;55.20;100458.13;5027299;28;20045;-69
2022/08/08 07:36:31;;;;;;;12.52;6.97;;;;;;;19.37;54.19;100465.94;5008281;28;20077;-56
2022/08/08 07:38:59;;;;;;;21.83;7.10;;;;;;;19.55;54.76;100463.72;5008266;28;20046;-52
2022/08/08 07:41:26;;;;;;;12.73;6.00;;;;;;;19.99;54.20;100464.84;5014747;28;20041;-48
2022/08/08 07:43:54;;;;;;;15.45;7.85;;;;;;;20.16;52.96;100464.38;5042972;28;20049;-49
2022/08/08 07:46:21;;;;;;;11.93;8.23;;;;;;;20.21;52.78;100470.22;5027484;28;20163;-46
2022/08/08 07:48:48;;;;;;;12.80;7.90;;;;;;;20.50;51.86;100465.22;5027345;28;20420;-52
2022/08/08 07:51:17;;;;;;;10.20;7.25;;;;;;;20.64;50.82;100471.31;5027866;28;20053;-47
2022/08/08 07:53:47;;;;;;;16.45;9.52;;;;;;;20.57;50.97;100468.28;5028428;28;20053;-52
2022/08/08 07:56:16;;;;;;;10.02;7.35;;;;;;;20.56;51.55;100471.94;5015965;28;20105;-51
2022/08/08 07:58:44;;;;;;;20.63;8.43;;;;;;;20.71;54.21;100476.06;5007852;28;20046;-45
2022/08/08 08:01:14;;;;;;;12.52;7.95;;;;;;;20.90;52.92;100478.09;5008331;28;20482;-47
2022/08/08 08:03:45;;;;;;;11.40;7.13;;;;;;;21.18;51.63;100484.72;5008719;28;20167;-48
2022/08/08 08:06:13;;;;;;;11.40;6.28;;;;;;;21.40;49.88;100477.63;5008365;28;20060;-55
2022/08/08 08:08:47;;;;;;;8.65;6.85;;;;;;;21.52;48.92;100476.59;5009949;28;20421;-64
2022/08/08 08:11:16;;;;;;;13.15;6.65;;;;;;;22.03;48.68;100467.75;5012773;28;20133;-61
2022/08/08 08:13:54;;;;;;;9.48;6.07;;;;;;;22.79;47.31;100483.53;5012082;28;20060;-61
2022/08/08 08:16:25;;;;;;;12.13;6.57;;;;;;;23.29;45.34;100479.97;5011273;28;20136;-60
2022/08/08 08:18:53;;;;;;;13.05;7.30;;;;;;;23.42;44.21;100477.00;5011824;28;20053;-60
2022/08/08 08:21:21;;;;;;;15.60;7.43;;;;;;;23.32;45.64;100477.84;5011903;28;20050;-60
2022/08/08 08:23:49;;;;;;;10.13;6.57;;;;;;;23.33;44.47;100484.06;5011721;28;20045;-59
2022/08/08 08:26:16;;;;;;;9.05;5.90;;;;;;;23.42;44.34;100483.22;5011384;28;20050;-59
2022/08/08 08:28:43;;;;;;;11.60;6.43;;;;;;;23.33;44.61;100490.31;5012055;28;20072;-61
2022/08/08 08:31:10;;;;;;;8.43;5.93;;;;;;;23.15;44.56;100486.59;5011958;28;20045;-66
2022/08/08 08:33:37;;;;;;;10.18;7.65;;;;;;;22.54;45.43;100487.53;5012105;28;20054;-56
2022/08/08 08:36:06;;;;;;;7.15;5.25;;;;;;;22.50;46.70;100483.44;5009801;28;20050;-57
2022/08/08 08:38:33;;;;;;;9.07;5.25;;;;;;;22.62;46.30;100486.84;5009721;28;20054;-68
2022/08/08 08:41:02;;;;;;;11.32;6.63;;;;;;;22.55;46.18;100488.41;5019216;28;20484;-70
2022/08/08 08:43:30;;;;;;;8.85;6.13;;;;;;;22.34;45.97;100485.75;5025129;28;20063;-68
2022/08/08 08:45:58;;;;;;;13.02;7.28;;;;;;;22.34;45.75;100491.97;5028171;28;20115;-67
2022/08/08 08:48:25;;;;;;;14.82;7.40;;;;;;;22.39;45.92;100486.19;5028313;28;20398;-69
2022/08/08 08:50:53;;;;;;;8.88;6.25;;;;;;;22.38;45.75;100492.56;5028729;28;20076;-70
2022/08/08 08:53:21;;;;;;;7.45;5.82;;;;;;;22.29;46.18;100499.59;5029398;28;20051;-70
2022/08/08 08:55:49;;;;;;;10.45;6.03;;;;;;;22.28;46.25;100492.53;5020615;28;20057;-70
2022/08/08 08:58:30;;;;;;;11.82;7.45;;;;;;;22.20;45.25;100492.31;5009687;28;20158;-68
2022/08/08 09:00:59;;;;;;;14.73;6.72;;;;;;;22.01;45.47;100496.56;5009758;28;20046;-69
2022/08/08 09:03:27;;;;;;;7.35;6.40;;;;;;;22.08;46.31;100489.69;5009145;28;20144;-66
2022/08/08 09:05:55;;;;;;;9.63;6.90;;;;;;;22.16;45.48;100499.78;5009476;28;20046;-68
2022/08/08 09:08:26;;;;;;;10.10;6.50;;;;;;;22.44;44.82;100495.56;5009326;28;20054;-68
2022/08/08 09:10:53;;;;;;;10.00;6.72;;;;;;;22.57;43.06;100498.03;5016534;28;20489;-67
2022/08/08 09:13:21;;;;;;;9.23;5.95;;;;;;;22.79;42.43;100496.97;5029021;28;20144;-68
2022/08/08 09:15:48;;;;;;;9.95;7.13;;;;;;;23.10;42.18;100499.63;5046517;28;20055;-69
2022/08/08 09:18:16;;;;;;;10.57;5.45;;;;;;;23.53;41.04;100501.94;5050737;28;20093;-67
2022/08/08 09:20:44;;;;;;;12.60;6.28;;;;;;;24.10;40.36;100498.50;5048842;28;20113;-68
2022/08/08 09:23:13;;;;;;;8.68;5.45;;;;;;;24.73;39.51;100489.75;5049327;28;20085;-69
2022/08/08 09:25:46;;;;;;;8.55;5.03;;;;;;;25.29;37.64;100491.44;5049281;28;20449;-69
2022/08/08 09:28:13;;;;;;;9.20;5.40;;;;;;;25.88;36.01;100484.53;5049534;28;20132;-68
2022/08/08 09:30:43;;;;;;;11.18;5.30;;;;;;;26.17;35.66;100480.69;5031009;28;20525;-69
2022/08/08 09:33:13;;;;;;;6.07;5.40;;;;;;;26.35;34.68;100484.16;5029710;28;20045;-67
2022/08/08 09:35:45;;;;;;;7.57;4.53;;;;;;;26.92;33.83;100486.28;5028598;28;20059;-68
2022/08/08 09:38:20;;;;;;;6.35;5.07;;;;;;;27.51;32.83;100482.69;5028533;28;20053;-69
2022/08/08 09:40:52;;;;;;;10.95;5.32;;;;;;;27.93;32.69;100479.00;5028501;28;20056;-69
2022/08/08 09:43:28;;;;;;;9.30;5.07;;;;;;;28.25;31.05;100478.91;5012779;28;20102;-68
2022/08/08 09:46:00;;;;;;;10.52;4.40;;;;;;;28.43;31.32;100483.31;5008022;28;20056;-69
2022/08/08 09:48:29;;;;;;;6.60;4.35;;;;;;;29.14;30.36;100473.31;5007690;28;20046;-69
2022/08/08 09:50:57;;;;;;;6.03;5.03;;;;;;;29.30;29.04;100473.22;5008234;28;20041;-68
2022/08/08 09:53:33;;;;;;;5.45;4.18;;;;;;;29.79;29.22;100471.16;5008284;28;20080;-68
2022/08/08 09:56:03;;;;;;;5.13;4.05;;;;;;;30.54;28.05;100462.03;5007952;28;20068;-67
2022/08/08 09:58:38;;;;;;;10.80;5.03;;;;;;;30.55;26.70;100467.31;5008326;28;20421;-68
2022/08/08 10:01:07;;;;;;;7.00;3.90;;;;;;;30.77;26.60;100465.47;5008223;28;20046;-68
2022/08/08 10:03:36;;;;;;;11.07;4.30;;;;;;;31.01;26.48;100464.34;5007439;28;20046;-67
2022/08/08 10:06:13;;;;;;;8.73;4.82;;;;;;;31.01;26.25;100467.06;5007323;28;20061;-67
2022/08/08 10:08:44;;;;;;;6.28;4.50;;;;;;;31.39;26.05;100464.13;5008185;28;20433;-67
2022/08/08 10:11:12;;;;;;;6.55;3.97;;;;;;;31.56;25.45;100459.25;5008962;28;20050;-67
2022/08/08 10:13:38;;;;;;;6.40;4.20;;;;;;;31.71;25.43;100459.16;5008109;28;20080;-69
2022/08/08 10:16:06;;;;;;;4.88;3.53;;;;;;;31.60;25.29;100457.81;5044868;28;20644;-68
2022/08/08 10:18:35;;;;;;;6.30;3.72;;;;;;;31.82;24.94;100455.03;5047879;28;20052;-67
2022/08/08 10:21:04;;;;;;;5.55;3.58;;;;;;;31.80;24.53;100454.38;5047822;28;20431;-67
2022/08/08 10:23:42;;;;;;;7.15;4.00;;;;;;;31.64;24.54;100452.81;5047751;28;20127;-67
2022/08/08 10:26:15;;;;;;;4.82;3.38;;;;;;;31.74;24.48;100447.84;5048114;28;20048;-67
2022/08/08 10:28:54;;;;;;;5.43;3.85;;;;;;;32.13;24.56;100442.91;5050287;28;20171;-68
2022/08/08 10:34:13;;;;;;;7.57;4.47;;;;;;;32.11;24.46;100445.00;5033627;28;20063;-68
2022/08/08 10:36:41;;;;;;;7.32;4.45;;;;;;;32.07;24.34;100445.41;5023470;28;20064;-68
2022/08/08 10:39:10;;;;;;;6.88;4.32;;;;;;;32.11;24.30;100439.53;5023061;28;20076;-67
2022/08/08 10:41:38;;;;;;;10.82;3.75;;;;;;;31.56;24.19;100436.59;5027788;28;20045;-67
2022/08/08 10:44:06;;;;;;;8.18;3.50;;;;;;;30.89;25.01;100445.94;5028149;28;20061;-68
2022/08/08 10:46:34;;;;;;;5.30;3.78;;;;;;;31.03;24.53;100442.34;5028503;28;20442;-68
2022/08/08 10:49:00;;;;;;;4.38;3.30;;;;;;;30.76;25.01;100447.44;5027908;28;20665;-67
2022/08/08 10:51:29;;;;;;;5.72;2.92;;;;;;;31.10;25.12;100437.81;5028374;28;20536;-67
2022/08/08 10:53:56;;;;;;;6.57;4.10;;;;;;;31.54;24.48;100436.78;5028130;28;20053;-67
2022/08/08 10:56:23;;;;;;;6.45;3.42;;;;;;;30.77;25.67;100431.97;5013895;28;20060;-71
2022/08/08 10:58:57;;;;;;;14.45;4.53;;;;;;;29.68;27.10;100437.09;5026268;28;20049;-68
2022/08/08 11:01:28;;;;;;;8.00;3.15;;;;;;;29.64;27.26;100431.16;5032418;28;20041;-68
2022/08/08 11:03:57;;;;;;;5.35;4.30;;;;;;;28.92;27.78;100434.25;5027221;28;20046;-69
2022/08/08 11:06:29;;;;;;;7.60;3.75;;;;;;;28.58;28.48;100432.75;5021413;28;20061;-68
2022/08/08 11:09:01;;;;;;;8.30;3.35;;;;;;;28.02;29.17;100432.72;5007576;28;20482;-68
2022/08/08 11:11:36;;;;;;;7.55;4.47;;;;;;;27.26;30.17;100427.69;5007899;28;20509;-69
2022/08/08 11:14:02;;;;;;;6.60;3.63;;;;;;;26.67;31.34;100431.25;5008278;28;20053;-69
2022/08/08 11:16:32;;;;;;;8.13;2.78;;;;;;;26.70;31.46;100430.91;5027495;28;20143;-69
2022/08/08 11:19:01;;;;;;;7.57;3.88;;;;;;;26.57;32.14;100432.41;5027356;28;20057;-67
2022/08/08 11:21:29;;;;;;;10.50;4.97;;;;;;;26.52;31.84;100427.47;5027996;28;20037;-69
2022/08/08 11:23:59;;;;;;;5.28;3.95;;;;;;;26.62;31.59;100422.78;5026359;28;20137;-71
2022/08/08 11:26:28;;;;;;;7.13;3.60;;;;;;;26.56;31.27;100426.16;5026758;28;20045;-67
2022/08/08 11:28:58;;;;;;;8.88;4.30;;;;;;;26.11;32.27;100425.44;5026491;28;20057;-67
2022/08/08 11:31:27;;;;;;;5.65;3.78;;;;;;;25.91;32.70;100421.22;5027189;28;20132;-67
2022/08/08 11:33:57;;;;;;;6.57;4.43;;;;;;;26.01;32.46;100431.94;5026370;28;20133;-67
2022/08/08 11:36:25;;;;;;;7.10;3.33;;;;;;;26.21;31.92;100428.00;5024284;28;20050;-68
2022/08/08 11:38:53;;;;;;;5.30;3.53;;;;;;;26.18;31.86;100419.38;5007132;28;20123;-70
2022/08/08 11:41:22;;;;;;;4.75;3.88;;;;;;;26.08;31.75;100416.78;5006972;28;20058;-67
2022/08/08 11:43:48;;;;;;;5.55;3.72;;;;;;;26.25;32.05;100420.41;5007957;28;20137;-68
2022/08/08 11:46:15;;;;;;;5.80;3.92;;;;;;;26.38;31.42;100419.97;5010167;28;20061;-68
2022/08/08 11:48:43;;;;;;;6.28;3.45;;;;;;;26.23;31.38;100419.72;5010124;28;20133;-69
2022/08/08 11:51:11;;;;;;;6.13;3.35;;;;;;;26.21;31.62;100417.19;5010849;28;20100;-69
2022/08/08 11:53:39;;;;;;;7.03;3.33;;;;;;;25.84;32.04;100414.75;5010794;28;20050;-68
2022/08/08 11:56:06;;;;;;;7.03;3.70;;;;;;;25.92;32.11;100414.84;5010121;28;20649;-66
2022/08/08 11:58:34;;;;;;;7.15;3.60;;;;;;;25.92;32.05;100409.44;5010731;28;20076;-68